Time;durP1;ratioP1;P1;durP2;ratioP2;P2;SDS_P1;SDS_P2;PMS_P1;PMS_P2;Temp;Humidity;BMP_temperature;BMP_pressure;BME280_temperature;BME280_humidity;BME280_pressure;Samples;Min_cycle;Max_cycle;Signal;HPM_P1;HPM_P2
2023/04/27 00:00:29;;;;;;;;;;;;;;;;;;5072202;28;936;-69
2023/04/27 00:02:54;;;;;;;;;;;;;;;;;;5072369;28;1906;-69
2023/04/27 00:05:20;;;;;;;;;;;;;;;;;;5071329;28;995;-69
2023/04/27 00:07:45;;;;;;;;;;;;;;;;;;5072081;28;983;-69
2023/04/27 00:10:11;;;;;;;;;;;;;;;;;;5071285;28;849;-69
2023/04/27 00:12:36;;;;;;;;;;;;;;;;;;5070846;28;1225;-68
2023/04/27 00:15:02;;;;;;;;;;;;;;;;;;5070358;28;1304;-69
2023/04/27 00:17:27;;;;;;;;;;;;;;;;;;5053965;28;1216;-69
2023/04/27 00:19:53;;;;;;;;;;;;;;;;;;5053485;28;996;-68
2023/04/27 00:22:18;;;;;;;;;;;;;;;;;;5070609;28;1921;-69
2023/04/27 00:24:44;;;;;;;;;;;;;;;;;;5070336;28;1443;-69
2023/04/27 00:27:12;;;;;;;;;;;;;;;;;;5071839;28;911;-69
2023/04/27 00:29:41;;;;;;;;;;;;;;;;;;5069737;28;1330;-68
2023/04/27 00:32:07;;;;;;;;;;;;;;;;;;5071799;28;622;-69
2023/04/27 00:34:32;;;;;;;;;;;;;;;;;;5071560;28;900;-68
2023/04/27 00:36:57;;;;;;;;;;;;;;;;;;5072471;28;1014;-68
2023/04/27 00:39:23;;;;;;;;;;;;;;;;;;5071889;28;852;-68
2023/04/27 00:41:48;;;;;;;;;;;;;;;;;;5070002;28;1961;-68
2023/04/27 00:44:21;;;;;;;;;;;;;;;;;;5054156;28;1254;-68
2023/04/27 00:46:46;;;;;;;;;;;;;;;;;;5070470;28;1175;-68
2023/04/27 00:49:11;;;;;;;;;;;;;;;;;;5074855;28;1385;-68
2023/04/27 00:51:36;;;;;;;;;;;;;;;;;;5073929;28;1289;-68
2023/04/27 00:54:02;;;;;;;;;;;;;;;;;;5057351;28;1247;-68
2023/04/27 00:56:27;;;;;;;;;;;;;;;;;;5073973;28;1360;-69
2023/04/27 00:58:53;;;;;;;;;;;;;;;;;;5075104;28;923;-69
2023/04/27 01:01:19;;;;;;;;;;;;;;;;;;5075354;28;1964;-69
2023/04/27 01:03:45;;;;;;;;;;;;;;;;;;5073709;28;841;-68
2023/04/27 01:06:10;;;;;;;;;;;;;;;;;;5057373;28;1256;-69
2023/04/27 01:08:36;;;;;;;;;;;;;;;;;;5073330;28;1164;-69
2023/04/27 01:11:02;;;;;;;;;;;;;;;;;;5073495;28;832;-69
2023/04/27 01:13:27;;;;;;;;;;;;;;;;;;5073741;28;824;-69
2023/04/27 01:15:52;;;;;;;;;;;;;;;;;;5073303;28;1210;-68
2023/04/27 01:18:18;;;;;;;;;;;;;;;;;;5074771;28;872;-68
2023/04/27 01:20:43;;;;;;;;;;;;;;;;;;5056603;28;1333;-68
2023/04/27 01:23:12;;;;;;;;;;;;;;;;;;5074923;28;1878;-68
2023/04/27 01:25:37;;;;;;;;;;;;;;;;;;5074824;28;849;-68
2023/04/27 01:28:03;;;;;;;;;;;;;;;;;;5073360;28;1265;-69
2023/04/27 01:30:28;;;;;;;;;;;;;;;;;;5075192;28;1042;-69
2023/04/27 01:32:54;;;;;;;;;;;;;;;;;;5073967;28;874;-69
2023/04/27 01:35:19;;;;;;;;;;;;;;;;;;5075179;28;967;-68
2023/04/27 01:37:45;;;;;;;;;;;;;;;;;;5075350;28;1026;-70
2023/04/27 01:40:11;;;;;;;;;;;;;;;;;;5057476;28;1258;-69
2023/04/27 01:42:37;;;;;;;;;;;;;;;;;;5073918;28;1918;-68
2023/04/27 01:45:02;;;;;;;;;;;;;;;;;;5074005;28;1291;-68
2023/04/27 01:47:28;;;;;;;;;;;;;;;;;;5075228;28;1081;-69
2023/04/27 01:49:53;;;;;;;;;;;;;;;;;;5074742;28;884;-69
2023/04/27 01:52:18;;;;;;;;;;;;;;;;;;5073457;28;1257;-69
2023/04/27 01:54:44;;;;;;;;;;;;;;;;;;5073296;28;1070;-69
2023/04/27 01:57:09;;;;;;;;;;;;;;;;;;5073263;28;1257;-69
2023/04/27 01:59:34;;;;;;;;;;;;;;;;;;5056131;28;1211;-69
2023/04/27 02:02:00;;;;;;;;;;;;;;;;;;5073604;28;1910;-69
2023/04/27 02:04:25;;;;;;;;;;;;;;;;;;5073051;28;1185;-69
2023/04/27 02:06:50;;;;;;;;;;;;;;;;;;5089352;28;1216;-68
2023/04/27 02:09:16;;;;;;;;;;;;;;;;;;5074350;28;868;-68
2023/04/27 02:11:41;;;;;;;;;;;;;;;;;;5073595;28;892;-69
2023/04/27 02:14:06;;;;;;;;;;;;;;;;;;5072634;28;1063;-68
2023/04/27 02:16:32;;;;;;;;;;;;;;;;;;5072481;28;1330;-69
2023/04/27 02:18:57;;;;;;;;;;;;;;;;;;5073563;28;833;-68
2023/04/27 02:21:23;;;;;;;;;;;;;;;;;;5073870;28;1951;-69
2023/04/27 02:23:48;;;;;;;;;;;;;;;;;;5072846;28;1027;-69
2023/04/27 02:26:18;;;;;;;;;;;;;;;;;;5072575;28;966;-69
2023/04/27 02:28:43;;;;;;;;;;;;;;;;;;5073243;28;907;-68
2023/04/27 02:31:08;;;;;;;;;;;;;;;;;;5073635;28;939;-68
2023/04/27 02:33:34;;;;;;;;;;;;;;;;;;5072297;28;907;-68
2023/04/27 02:35:59;;;;;;;;;;;;;;;;;;5073510;28;926;-69
2023/04/27 02:38:24;;;;;;;;;;;;;;;;;;5055258;28;1315;-69
2023/04/27 02:40:53;;;;;;;;;;;;;;;;;;5072142;28;1332;-69
2023/04/27 02:43:19;;;;;;;;;;;;;;;;;;5073804;28;1964;-69
2023/04/27 02:45:44;;;;;;;;;;;;;;;;;;5072013;28;793;-69
2023/04/27 02:48:09;;;;;;;;;;;;;;;;;;5073209;28;1049;-69
2023/04/27 02:50:39;;;;;;;;;;;;;;;;;;5071922;28;1471;-69
2023/04/27 02:53:04;;;;;;;;;;;;;;;;;;5072780;28;947;-69
2023/04/27 02:55:30;;;;;;;;;;;;;;;;;;5071698;28;817;-68
2023/04/27 02:57:56;;;;;;;;;;;;;;;;;;5072589;28;785;-69
2023/04/27 03:00:21;;;;;;;;;;;;;;;;;;5071822;28;797;-69
2023/04/27 03:02:47;;;;;;;;;;;;;;;;;;5072569;28;1967;-69
2023/04/27 03:05:12;;;;;;;;;;;;;;;;;;5073022;28;864;-69
2023/04/27 03:07:37;;;;;;;;;;;;;;;;;;5073302;28;952;-69
2023/04/27 03:10:02;;;;;;;;;;;;;;;;;;5070849;28;845;-68
2023/04/27 03:12:28;;;;;;;;;;;;;;;;;;5073507;28;852;-69
2023/04/27 03:14:53;;;;;;;;;;;;;;;;;;5072024;28;1077;-68
2023/04/27 03:17:18;;;;;;;;;;;;;;;;;;5073833;28;939;-68
2023/04/27 03:19:45;;;;;;;;;;;;;;;;;;5072053;28;1185;-69
2023/04/27 03:22:11;;;;;;;;;;;;;;;;;;5073589;28;1906;-68
2023/04/27 03:24:36;;;;;;;;;;;;;;;;;;5072144;28;833;-68
2023/04/27 03:27:01;;;;;;;;;;;;;;;;;;5073194;28;1550;-68
2023/04/27 03:29:27;;;;;;;;;;;;;;;;;;5075347;28;806;-69
2023/04/27 03:31:52;;;;;;;;;;;;;;;;;;5073462;28;911;-68
2023/04/27 03:34:19;;;;;;;;;;;;;;;;;;5074332;28;894;-69
2023/04/27 03:36:45;;;;;;;;;;;;;;;;;;5072184;28;1443;-69
2023/04/27 03:39:10;;;;;;;;;;;;;;;;;;5073553;28;793;-68
2023/04/27 03:41:35;;;;;;;;;;;;;;;;;;5072784;28;1902;-69
2023/04/27 03:44:01;;;;;;;;;;;;;;;;;;5076272;28;907;-68
2023/04/27 03:46:26;;;;;;;;;;;;;;;;;;5075356;28;868;-68
2023/04/27 03:48:51;;;;;;;;;;;;;;;;;;5071845;28;1268;-69
2023/04/27 03:51:17;;;;;;;;;;;;;;;;;;5072533;28;952;-69
2023/04/27 03:53:42;;;;;;;;;;;;;;;;;;5074070;28;825;-69
2023/04/27 03:56:07;;;;;;;;;;;;;;;;;;5072097;28;1169;-69
2023/04/27 03:58:33;;;;;;;;;;;;;;;;;;5072312;28;1090;-68
2023/04/27 04:00:58;;;;;;;;;;;;;;;;;;5074345;28;1008;-68
2023/04/27 04:03:23;;;;;;;;;;;;;;;;;;5074031;28;1987;-68
2023/04/27 04:05:49;;;;;;;;;;;;;;;;;;5071735;28;1280;-68
2023/04/27 04:08:14;;;;;;;;;;;;;;;;;;5072282;28;1244;-68
2023/04/27 04:10:39;;;;;;;;;;;;;;;;;;5071821;28;825;-68
2023/04/27 04:13:05;;;;;;;;;;;;;;;;;;5071157;28;1007;-69
2023/04/27 04:15:30;;;;;;;;;;;;;;;;;;5072889;28;916;-68
2023/04/27 04:17:55;;;;;;;;;;;;;;;;;;5071418;28;829;-69
2023/04/27 04:20:21;;;;;;;;;;;;;;;;;;5072160;28;959;-69
2023/04/27 04:22:46;;;;;;;;;;;;;;;;;;5075468;28;1898;-69
2023/04/27 04:25:12;;;;;;;;;;;;;;;;;;5058163;28;1199;-69
2023/04/27 04:27:37;;;;;;;;;;;;;;;;;;5074923;28;1254;-69
2023/04/27 04:30:05;;;;;;;;;;;;;;;;;;5074165;28;867;-69
2023/04/27 04:32:30;;;;;;;;;;;;;;;;;;5074866;28;1292;-69
2023/04/27 04:34:56;;;;;;;;;;;;;;;;;;5074328;28;994;-69
2023/04/27 04:37:22;;;;;;;;;;;;;;;;;;5077598;28;876;-68
2023/04/27 04:39:47;;;;;;;;;;;;;;;;;;5074786;28;896;-69
2023/04/27 04:42:12;;;;;;;;;;;;;;;;;;5074854;28;1906;-69
2023/04/27 04:44:37;;;;;;;;;;;;;;;;;;5076243;28;931;-69
2023/04/27 04:47:03;;;;;;;;;;;;;;;;;;5091273;28;1599;-69
2023/04/27 04:49:29;;;;;;;;;;;;;;;;;;5074164;28;1288;-69
2023/04/27 04:51:54;;;;;;;;;;;;;;;;;;5075113;28;832;-69
2023/04/27 04:54:19;;;;;;;;;;;;;;;;;;5075655;28;1035;-69
2023/04/27 04:56:45;;;;;;;;;;;;;;;;;;5074290;28;1122;-69
2023/04/27 04:59:10;;;;;;;;;;;;;;;;;;5074262;28;1160;-69
2023/04/27 05:01:35;;;;;;;;;;;;;;;;;;5057302;28;1913;-69
2023/04/27 05:04:01;;;;;;;;;;;;;;;;;;5073823;28;995;-69
2023/04/27 05:06:26;;;;;;;;;;;;;;;;;;5073984;28;1276;-69
2023/04/27 05:08:52;;;;;;;;;;;;;;;;;;5074235;28;1394;-69
2023/04/27 05:11:17;;;;;;;;;;;;;;;;;;5057394;28;1559;-69
2023/04/27 05:13:42;;;;;;;;;;;;;;;;;;5075346;28;872;-69
2023/04/27 05:16:08;;;;;;;;;;;;;;;;;;5073376;28;1189;-69
2023/04/27 05:18:33;;;;;;;;;;;;;;;;;;5073422;28;1339;-69
2023/04/27 05:20:59;;;;;;;;;;;;;;;;;;5074106;28;797;-68
2023/04/27 05:23:25;;;;;;;;;;;;;;;;;;5072906;28;1902;-69
2023/04/27 05:25:50;;;;;;;;;;;;;;;;;;5056507;28;1215;-69
2023/04/27 05:28:16;;;;;;;;;;;;;;;;;;5074169;28;899;-69
2023/04/27 05:30:41;;;;;;;;;;;;;;;;;;5073240;28;1191;-69
2023/04/27 05:33:06;;;;;;;;;;;;;;;;;;5070337;28;1276;-69
2023/04/27 05:35:32;;;;;;;;;;;;;;;;;;5068577;28;1210;-69
2023/04/27 05:37:57;;;;;;;;;;;;;;;;;;5058405;28;1219;-69
2023/04/27 05:40:23;;;;;;;;;;;;;;;;;;5054027;28;1115;-69
2023/04/27 05:42:48;;;;;;;;;;;;;;;;;;5053957;28;1898;-69
2023/04/27 05:45:14;;;;;;;;;;;;;;;;;;5053870;28;860;-69
2023/04/27 05:47:39;;;;;;;;;;;;;;;;;;5052826;28;908;-69
2023/04/27 05:50:05;;;;;;;;;;;;;;;;;;5052506;28;1200;-69
2023/04/27 05:52:30;;;;;;;;;;;;;;;;;;5052718;28;1207;-69
2023/04/27 05:54:57;;;;;;;;;;;;;;;;;;5053898;28;896;-70
2023/04/27 05:57:23;;;;;;;;;;;;;;;;;;5054274;28;821;-69
2023/04/27 05:59:48;;;;;;;;;;;;;;;;;;5036366;28;1158;-69
2023/04/27 06:02:13;;;;;;;;;;;;;;;;;;5053890;28;1910;-69
2023/04/27 06:04:38;;;;;;;;;;;;;;;;;;5053038;28;912;-69
2023/04/27 06:07:10;;;;;;;;;;;;;;;;;;5053606;28;890;-69
2023/04/27 06:09:36;;;;;;;;;;;;;;;;;;5052918;28;1246;-69
2023/04/27 06:12:04;;;;;;;;;;;;;;;;;;5053748;28;984;-69
2023/04/27 06:14:30;;;;;;;;;;;;;;;;;;5052405;28;888;-69
2023/04/27 06:16:56;;;;;;;;;;;;;;;;;;5052114;28;845;-69
2023/04/27 06:19:21;;;;;;;;;;;;;;;;;;5053044;28;955;-69
2023/04/27 06:21:46;;;;;;;;;;;;;;;;;;5051888;28;1898;-70
2023/04/27 06:24:12;;;;;;;;;;;;;;;;;;5053269;28;986;-69
2023/04/27 06:26:37;;;;;;;;;;;;;;;;;;5053335;28;1109;-69
2023/04/27 06:29:03;;;;;;;;;;;;;;;;;;5051806;28;714;-70
2023/04/27 06:31:28;;;;;;;;;;;;;;;;;;5051957;28;1269;-69
2023/04/27 06:33:54;;;;;;;;;;;;;;;;;;5053626;28;884;-69
2023/04/27 06:36:19;;;;;;;;;;;;;;;;;;5053175;28;1015;-69
2023/04/27 06:38:45;;;;;;;;;;;;;;;;;;5053781;28;848;-69
2023/04/27 06:41:10;;;;;;;;;;;;;;;;;;5035861;28;1184;-69
2023/04/27 06:43:37;;;;;;;;;;;;;;;;;;5034928;28;1969;-69
2023/04/27 06:46:03;;;;;;;;;;;;;;;;;;5052515;28;849;-69
2023/04/27 06:48:28;;;;;;;;;;;;;;;;;;5052937;28;1080;-69
2023/04/27 06:50:54;;;;;;;;;;;;;;;;;;5053206;28;916;-69
2023/04/27 06:53:19;;;;;;;;;;;;;;;;;;5051601;28;1187;-69
2023/04/27 06:55:44;;;;;;;;;;;;;;;;;;5052958;28;911;-69
2023/04/27 06:58:10;;;;;;;;;;;;;;;;;;5051681;28;1328;-69
2023/04/27 07:00:35;;;;;;;;;;;;;;;;;;5052773;28;857;-70
2023/04/27 07:03:01;;;;;;;;;;;;;;;;;;5051190;28;1906;-69
2023/04/27 07:05:26;;;;;;;;;;;;;;;;;;5052366;28;873;-69
2023/04/27 07:07:52;;;;;;;;;;;;;;;;;;5051343;28;1178;-69
2023/04/27 07:10:17;;;;;;;;;;;;;;;;;;5052332;28;833;-69
2023/04/27 07:12:42;;;;;;;;;;;;;;;;;;5052755;28;965;-69
2023/04/27 07:15:08;;;;;;;;;;;;;;;;;;5051251;28;793;-69
2023/04/27 07:17:33;;;;;;;;;;;;;;;;;;5053139;28;845;-69
2023/04/27 07:20:05;;;;;;;;;;;;;;;;;;5052455;28;825;-69
2023/04/27 07:22:31;;;;;;;;;;;;;;;;;;5051243;28;1890;-69
2023/04/27 07:24:57;;;;;;;;;;;;;;;;;;5052246;28;877;-69
2023/04/27 07:27:22;;;;;;;;;;;;;;;;;;5052268;28;813;-69
2023/04/27 07:29:47;;;;;;;;;;;;;;;;;;5052454;28;1001;-69
2023/04/27 07:32:13;;;;;;;;;;;;;;;;;;5051071;28;1124;-69
2023/04/27 07:34:38;;;;;;;;;;;;;;;;;;5051206;28;975;-69
2023/04/27 07:37:04;;;;;;;;;;;;;;;;;;5052318;28;817;-69
2023/04/27 07:39:29;;;;;;;;;;;;;;;;;;5050887;28;1387;-69
2023/04/27 07:41:55;;;;;;;;;;;;;;;;;;5052067;28;1963;-70
2023/04/27 07:44:20;;;;;;;;;;;;;;;;;;5050308;28;1451;-69
2023/04/27 07:46:47;;;;;;;;;;;;;;;;;;5051698;28;884;-69
2023/04/27 07:49:13;;;;;;;;;;;;;;;;;;5051826;28;1263;-70
2023/04/27 07:51:38;;;;;;;;;;;;;;;;;;5052180;28;892;-69
2023/04/27 07:54:04;;;;;;;;;;;;;;;;;;5051515;28;896;-69
2023/04/27 07:56:29;;;;;;;;;;;;;;;;;;5051119;28;943;-69
2023/04/27 07:58:54;;;;;;;;;;;;;;;;;;5051457;28;841;-69
2023/04/27 08:01:20;;;;;;;;;;;;;;;;;;5051708;28;896;-69
2023/04/27 08:03:46;;;;;;;;;;;;;;;;;;5051594;28;1899;-69
2023/04/27 08:06:11;;;;;;;;;;;;;;;;;;5050311;28;932;-69
2023/04/27 08:08:36;;;;;;;;;;;;;;;;;;5051813;28;841;-69
2023/04/27 08:11:02;;;;;;;;;;;;;;;;;;5052133;28;852;-69
2023/04/27 08:13:27;;;;;;;;;;;;;;;;;;5051719;28;964;-69
2023/04/27 08:15:57;;;;;;;;;;;;;;;;;;5051549;28;905;-69
2023/04/27 08:18:22;;;;;;;;;;;;;;;;;;5051570;28;848;-69
2023/04/27 08:20:48;;;;;;;;;;;;;;;;;;5034045;28;1302;-69
2023/04/27 08:23:13;;;;;;;;;;;;;;;;;;5050052;28;1969;-69
2023/04/27 08:25:38;;;;;;;;;;;;;;;;;;5050653;28;786;-69
2023/04/27 08:28:04;;;;;;;;;;;;;;;;;;5050286;28;1145;-68
2023/04/27 08:30:29;;;;;;;;;;;;;;;;;;5049769;28;1284;-68
2023/04/27 08:32:54;;;;;;;;;;;;;;;;;;5051338;28;833;-68
2023/04/27 08:35:19;;;;;;;;;;;;;;;;;;5049692;28;1317;-68
2023/04/27 08:37:45;;;;;;;;;;;;;;;;;;5050399;28;821;-68
2023/04/27 08:40:11;;;;;;;;;;;;;;;;;;5033980;28;1205;-68
2023/04/27 08:42:37;;;;;;;;;;;;;;;;;;5050960;28;1902;-68
2023/04/27 08:45:06;;;;;;;;;;;;;;;;;;5049389;28;1277;-68
2023/04/27 08:47:31;;;;;;;;;;;;;;;;;;5050934;28;864;-68
2023/04/27 08:49:56;;;;;;;;;;;;;;;;;;5049075;28;1402;-68
2023/04/27 08:52:22;;;;;;;;;;;;;;;;;;5050220;28;872;-67
2023/04/27 08:54:47;;;;;;;;;;;;;;;;;;5051211;28;844;-69
2023/04/27 08:57:13;;;;;;;;;;;;;;;;;;5051584;28;984;-68
2023/04/27 08:59:39;;;;;;;;;;;;;;;;;;5049689;28;1235;-68
2023/04/27 09:02:05;;;;;;;;;;;;;;;;;;5051297;28;1947;-68
2023/04/27 09:04:39;;;;;;;;;;;;;;;;;;5049957;28;1246;-68
2023/04/27 09:07:14;;;;;;;;;;;;;;;;;;5051038;28;904;-69
2023/04/27 09:09:40;;;;;;;;;;;;;;;;;;5054236;28;857;-68
2023/04/27 09:12:19;;;;;;;;;;;;;;;;;;5053001;28;1502;-68
2023/04/27 09:15:10;;;;;;;;;;;;;;;;;;5054415;28;900;-68
2023/04/27 09:17:37;;;;;;;;;;;;;;;;;;5084033;28;1441;-68
2023/04/27 09:20:12;;;;;;;;;;;;;;;;;;5052805;28;1221;-67
2023/04/27 09:22:47;;;;;;;;;;;;;;;;;;5052837;28;1902;-68
2023/04/27 09:25:29;;;;;;;;;;;;;;;;;;5052494;28;1064;-68
2023/04/27 09:27:55;;;;;;;;;;;;;;;;;;5052767;28;857;-68
2023/04/27 09:30:20;;;;;;;;;;;;;;;;;;5054068;28;880;-68
2023/04/27 09:33:03;;;;;;;;;;;;;;;;;;5053817;28;841;-68
2023/04/27 09:35:31;;;;;;;;;;;;;;;;;;5053855;28;1007;-68
2023/04/27 09:37:57;;;;;;;;;;;;;;;;;;5052724;28;1379;-68
2023/04/27 09:40:26;;;;;;;;;;;;;;;;;;5052260;28;951;-67
2023/04/27 09:42:51;;;;;;;;;;;;;;;;;;5052091;28;1906;-67
2023/04/27 09:45:18;;;;;;;;;;;;;;;;;;5052465;28;1209;-67
2023/04/27 09:47:43;;;;;;;;;;;;;;;;;;5053480;28;1164;-68
2023/04/27 09:50:11;;;;;;;;;;;;;;;;;;5051970;28;1152;-67
2023/04/27 09:52:36;;;;;;;;;;;;;;;;;;5054015;28;777;-68
2023/04/27 09:55:05;;;;;;;;;;;;;;;;;;5052197;28;885;-68
2023/04/27 09:57:37;;;;;;;;;;;;;;;;;;5052402;28;1201;-68
2023/04/27 10:00:21;;;;;;;;;;;;;;;;;;5053731;28;884;-68
2023/04/27 10:03:06;;;;;;;;;;;;;;;;;;5051885;28;1898;-69
2023/04/27 10:05:45;;;;;;;;;;;;;;;;;;5053362;28;837;-70
2023/04/27 10:08:11;;;;;;;;;;;;;;;;;;5052244;28;1191;-70
2023/04/27 10:10:46;;;;;;;;;;;;;;;;;;5053185;28;832;-70
2023/04/27 10:13:20;;;;;;;;;;;;;;;;;;5053499;28;892;-70
2023/04/27 10:15:46;;;;;;;;;;;;;;;;;;5053472;28;809;-70
2023/04/27 10:18:11;;;;;;;;;;;;;;;;;;5054321;28;915;-70
2023/04/27 10:20:36;;;;;;;;;;;;;;;;;;5053733;28;896;-70
2023/04/27 10:23:02;;;;;;;;;;;;;;;;;;5052037;28;1902;-70
2023/04/27 10:25:29;;;;;;;;;;;;;;;;;;5053484;28;908;-70
2023/04/27 10:27:55;;;;;;;;;;;;;;;;;;5053586;28;833;-70
2023/04/27 10:30:22;;;;;;;;;;;;;;;;;;5052591;28;1503;-70
2023/04/27 10:32:57;;;;;;;;;;;;;;;;;;5052188;28;1151;-70
2023/04/27 10:35:35;;;;;;;;;;;;;;;;;;5053325;28;988;-66
2023/04/27 10:38:14;;;;;;;;;;;;;;;;;;5051282;28;1329;-67
2023/04/27 10:40:39;;;;;;;;;;;;;;;;;;5051657;28;1274;-67
2023/04/27 10:43:08;;;;;;;;;;;;;;;;;;5052639;28;1977;-67
2023/04/27 10:45:33;;;;;;;;;;;;;;;;;;5052522;28;852;-67
2023/04/27 10:47:59;;;;;;;;;;;;;;;;;;5052579;28;1315;-67
2023/04/27 10:50:25;;;;;;;;;;;;;;;;;;5052802;28;975;-67
2023/04/27 10:52:51;;;;;;;;;;;;;;;;;;5051798;28;853;-67
2023/04/27 10:55:20;;;;;;;;;;;;;;;;;;5050984;28;1307;-67
2023/04/27 10:57:47;;;;;;;;;;;;;;;;;;5050913;28;1206;-67
2023/04/27 11:00:13;;;;;;;;;;;;;;;;;;5050911;28;959;-67
2023/04/27 11:02:38;;;;;;;;;;;;;;;;;;5052070;28;1906;-66
2023/04/27 11:05:14;;;;;;;;;;;;;;;;;;5051850;28;939;-67
2023/04/27 11:07:39;;;;;;;;;;;;;;;;;;5051778;28;845;-67
2023/04/27 11:10:06;;;;;;;;;;;;;;;;;;5052197;28;810;-67
2023/04/27 11:12:31;;;;;;;;;;;;;;;;;;5052191;28;947;-64
2023/04/27 11:14:57;;;;;;;;;;;;;;;;;;5050722;28;949;-64
2023/04/27 11:17:29;;;;;;;;;;;;;;;;;;5051777;28;841;-65
2023/04/27 11:19:55;;;;;;;;;;;;;;;;;;5050596;28;889;-64
2023/04/27 11:22:20;;;;;;;;;;;;;;;;;;5051853;28;1915;-64
2023/04/27 11:24:47;;;;;;;;;;;;;;;;;;5033961;28;1353;-64
2023/04/27 11:27:12;;;;;;;;;;;;;;;;;;5051462;28;841;-64
2023/04/27 11:29:38;;;;;;;;;;;;;;;;;;5051412;28;1007;-64
2023/04/27 11:32:03;;;;;;;;;;;;;;;;;;5051466;28;789;-65
2023/04/27 11:34:33;;;;;;;;;;;;;;;;;;5033701;28;1346;-64
2023/04/27 11:37:03;;;;;;;;;;;;;;;;;;5049968;28;1100;-65
2023/04/27 11:39:32;;;;;;;;;;;;;;;;;;5051590;28;877;-65
2023/04/27 11:42:13;;;;;;;;;;;;;;;;;;5051150;28;1894;-64
2023/04/27 11:44:39;;;;;;;;;;;;;;;;;;5051251;28;964;-65
2023/04/27 11:47:05;;;;;;;;;;;;;;;;;;5051861;28;833;-65
2023/04/27 11:49:31;;;;;;;;;;;;;;;;;;5051902;28;1228;-64
2023/04/27 11:51:56;;;;;;;;;;;;;;;;;;5051401;28;872;-65
2023/04/27 11:54:26;;;;;;;;;;;;;;;;;;5052313;28;940;-65
2023/04/27 11:56:52;;;;;;;;;;;;;;;;;;5051260;28;1034;-65
2023/04/27 11:59:21;;;;;;;;;;;;;;;;;;5052000;28;917;-65
2023/04/27 12:01:47;;;;;;;;;;;;;;;;;;5034025;28;1898;-65
2023/04/27 12:04:12;;;;;;;;;;;;;;;;;;5052540;28;1049;-65
2023/04/27 12:06:37;;;;;;;;;;;;;;;;;;5051192;28;908;-65
2023/04/27 12:09:04;;;;;;;;;;;;;;;;;;5066424;28;1211;-65
2023/04/27 12:11:29;;;;;;;;;;;;;;;;;;5067437;28;1279;-64
2023/04/27 12:13:55;;;;;;;;;;;;;;;;;;5049947;28;987;-65
2023/04/27 12:16:21;;;;;;;;;;;;;;;;;;5051356;28;817;-65
2023/04/27 12:18:47;;;;;;;;;;;;;;;;;;5051358;28;836;-64
2023/04/27 12:21:13;;;;;;;;;;;;;;;;;;5066790;28;1294;-65
2023/04/27 12:23:38;;;;;;;;;;;;;;;;;;5051274;28;2003;-65
2023/04/27 12:26:04;;;;;;;;;;;;;;;;;;5051015;28;838;-65
2023/04/27 12:28:29;;;;;;;;;;;;;;;;;;5033446;28;1369;-64
2023/04/27 12:30:54;;;;;;;;;;;;;;;;;;5050509;28;809;-65
2023/04/27 12:33:20;;;;;;;;;;;;;;;;;;5051472;28;836;-64
2023/04/27 12:35:45;;;;;;;;;;;;;;;;;;5049783;28;1007;-64
2023/04/27 12:38:11;;;;;;;;;;;;;;;;;;5049769;28;1135;-65
2023/04/27 12:40:36;;;;;;;;;;;;;;;;;;5050917;28;874;-64
2023/04/27 12:43:01;;;;;;;;;;;;;;;;;;5052805;28;1980;-65
2023/04/27 12:45:27;;;;;;;;;;;;;;;;;;5054000;28;1194;-65
2023/04/27 12:47:53;;;;;;;;;;;;;;;;;;5054343;28;1190;-64
2023/04/27 12:50:19;;;;;;;;;;;;;;;;;;5055677;28;1418;-64
2023/04/27 12:52:44;;;;;;;;;;;;;;;;;;5037951;28;1326;-65
2023/04/27 12:55:10;;;;;;;;;;;;;;;;;;5055179;28;841;-65
2023/04/27 12:57:35;;;;;;;;;;;;;;;;;;5037739;28;1322;-64
2023/04/27 13:00:00;;;;;;;;;;;;;;;;;;5053484;28;1328;-64
2023/04/27 13:02:26;;;;;;;;;;;;;;;;;;5055338;28;1910;-64
2023/04/27 13:04:51;;;;;;;;;;;;;;;;;;5053728;28;1179;-64
2023/04/27 13:07:16;;;;;;;;;;;;;;;;;;5070764;28;1145;-64
2023/04/27 13:09:42;;;;;;;;;;;;;;;;;;5055848;28;809;-64
2023/04/27 13:12:07;;;;;;;;;;;;;;;;;;5055865;28;1011;-64
2023/04/27 13:14:33;;;;;;;;;;;;;;;;;;5055304;28;1235;-64
2023/04/27 13:16:58;;;;;;;;;;;;;;;;;;5054270;28;841;-64
2023/04/27 13:19:24;;;;;;;;;;;;;;;;;;5054756;28;1352;-64
2023/04/27 13:21:49;;;;;;;;;;;;;;;;;;5053490;28;1893;-64
2023/04/27 13:24:16;;;;;;;;;;;;;;;;;;5055424;28;880;-64
2023/04/27 13:26:41;;;;;;;;;;;;;;;;;;5053611;28;1344;-64
2023/04/27 13:29:07;;;;;;;;;;;;;;;;;;5054200;28;888;-65
2023/04/27 13:31:32;;;;;;;;;;;;;;;;;;5052889;28;900;-64
2023/04/27 13:33:57;;;;;;;;;;;;;;;;;;5053491;28;921;-65
2023/04/27 13:36:23;;;;;;;;;;;;;;;;;;5035685;28;1218;-65
2023/04/27 13:38:48;;;;;;;;;;;;;;;;;;5053472;28;801;-64
2023/04/27 13:41:14;;;;;;;;;;;;;;;;;;5052532;28;1381;-65
2023/04/27 13:43:39;;;;;;;;;;;;;;;;;;5053502;28;1894;-65
2023/04/27 13:46:05;;;;;;;;;;;;;;;;;;5053395;28;967;-65
2023/04/27 13:48:30;;;;;;;;;;;;;;;;;;5052405;28;1189;-64
2023/04/27 13:50:56;;;;;;;;;;;;;;;;;;5052073;28;844;-64
2023/04/27 13:53:25;;;;;;;;;;;;;;;;;;5052114;28;1259;-64
2023/04/27 13:55:51;;;;;;;;;;;;;;;;;;5053232;28;963;-64
2023/04/27 13:58:16;;;;;;;;;;;;;;;;;;5035297;28;1447;-64
2023/04/27 14:00:42;;;;;;;;;;;;;;;;;;5036155;28;1339;-64
2023/04/27 14:03:07;;;;;;;;;;;;;;;;;;5035223;28;1906;-64
2023/04/27 14:05:32;;;;;;;;;;;;;;;;;;5052648;28;872;-64
2023/04/27 14:07:58;;;;;;;;;;;;;;;;;;5053060;28;841;-64
2023/04/27 14:10:23;;;;;;;;;;;;;;;;;;5053761;28;884;-64
2023/04/27 14:12:48;;;;;;;;;;;;;;;;;;5051947;28;875;-64
2023/04/27 14:15:14;;;;;;;;;;;;;;;;;;5052082;28;821;-64
2023/04/27 14:17:39;;;;;;;;;;;;;;;;;;5052073;28;1221;-64
2023/04/27 14:20:05;;;;;;;;;;;;;;;;;;5051202;28;1226;-64
2023/04/27 14:22:31;;;;;;;;;;;;;;;;;;5053236;28;1898;-65
2023/04/27 14:24:56;;;;;;;;;;;;;;;;;;5034597;28;1478;-64
2023/04/27 14:27:22;;;;;;;;;;;;;;;;;;5053438;28;813;-65
2023/04/27 14:29:47;;;;;;;;;;;;;;;;;;5051841;28;1333;-64
2023/04/27 14:32:12;;;;;;;;;;;;;;;;;;5052134;28;1293;-64
2023/04/27 14:34:38;;;;;;;;;;;;;;;;;;5054137;28;995;-64
2023/04/27 14:37:03;;;;;;;;;;;;;;;;;;5052929;28;908;-64
2023/04/27 14:39:28;;;;;;;;;;;;;;;;;;5053398;28;967;-64
2023/04/27 14:41:54;;;;;;;;;;;;;;;;;;5053015;28;1886;-64
2023/04/27 14:44:19;;;;;;;;;;;;;;;;;;5035461;28;1239;-65
2023/04/27 14:46:45;;;;;;;;;;;;;;;;;;5053370;28;813;-64
2023/04/27 14:49:10;;;;;;;;;;;;;;;;;;5051413;28;1200;-65
2023/04/27 14:51:35;;;;;;;;;;;;;;;;;;5051984;28;1166;-65
2023/04/27 14:54:03;;;;;;;;;;;;;;;;;;5052146;28;833;-65
2023/04/27 14:56:29;;;;;;;;;;;;;;;;;;5052601;28;821;-64
2023/04/27 14:58:54;;;;;;;;;;;;;;;;;;5050509;28;1559;-65
2023/04/27 15:01:20;;;;;;;;;;;;;;;;;;5050993;28;1265;-64
2023/04/27 15:03:45;;;;;;;;;;;;;;;;;;5050988;28;1918;-64
2023/04/27 15:06:11;;;;;;;;;;;;;;;;;;5049766;28;1076;-64
2023/04/27 15:08:36;;;;;;;;;;;;;;;;;;5050630;28;1300;-64
2023/04/27 15:11:03;;;;;;;;;;;;;;;;;;5050510;28;814;-65
2023/04/27 15:13:28;;;;;;;;;;;;;;;;;;5051198;28;900;-64
2023/04/27 15:15:58;;;;;;;;;;;;;;;;;;5051811;28;895;-64
2023/04/27 15:18:23;;;;;;;;;;;;;;;;;;5052376;28;805;-64
2023/04/27 15:20:56;;;;;;;;;;;;;;;;;;5052210;28;944;-65
2023/04/27 15:23:22;;;;;;;;;;;;;;;;;;5050829;28;1921;-64
2023/04/27 15:25:48;;;;;;;;;;;;;;;;;;5050893;28;1307;-64
2023/04/27 15:28:14;;;;;;;;;;;;;;;;;;5052013;28;849;-64
2023/04/27 15:30:40;;;;;;;;;;;;;;;;;;5050593;28;1330;-67
2023/04/27 15:33:05;;;;;;;;;;;;;;;;;;5051789;28;931;-64
2023/04/27 15:35:31;;;;;;;;;;;;;;;;;;5052284;28;893;-64
2023/04/27 15:37:56;;;;;;;;;;;;;;;;;;5050438;28;861;-64
2023/04/27 15:40:21;;;;;;;;;;;;;;;;;;5050698;28;1274;-64
2023/04/27 15:42:47;;;;;;;;;;;;;;;;;;5052206;28;2037;-64
2023/04/27 15:45:13;;;;;;;;;;;;;;;;;;5051015;28;836;-64
2023/04/27 15:47:38;;;;;;;;;;;;;;;;;;5067385;28;1184;-64
2023/04/27 15:50:04;;;;;;;;;;;;;;;;;;5051349;28;1196;-67
2023/04/27 15:52:29;;;;;;;;;;;;;;;;;;5051092;28;1238;-67
2023/04/27 15:54:55;;;;;;;;;;;;;;;;;;5050634;28;1448;-67
2023/04/27 15:57:20;;;;;;;;;;;;;;;;;;5051711;28;864;-67
2023/04/27 15:59:46;;;;;;;;;;;;;;;;;;5051907;28;864;-67
2023/04/27 16:02:12;;;;;;;;;;;;;;;;;;5050450;28;1910;-66
2023/04/27 16:04:37;;;;;;;;;;;;;;;;;;5052492;28;888;-67
2023/04/27 16:07:04;;;;;;;;;;;;;;;;;;5051950;28;833;-67
2023/04/27 16:09:30;;;;;;;;;;;;;;;;;;5051102;28;1338;-67
2023/04/27 16:11:55;;;;;;;;;;;;;;;;;;5050689;28;1308;-67
2023/04/27 16:14:20;;;;;;;;;;;;;;;;;;5052037;28;853;-67
2023/04/27 16:16:45;;;;;;;;;;;;;;;;;;5052391;28;928;-67
2023/04/27 16:19:11;;;;;;;;;;;;;;;;;;5056022;28;810;-67
2023/04/27 16:21:36;;;;;;;;;;;;;;;;;;5054522;28;809;-67
2023/04/27 16:24:01;;;;;;;;;;;;;;;;;;5053733;28;1961;-67
2023/04/27 16:26:27;;;;;;;;;;;;;;;;;;5037790;28;1501;-67
2023/04/27 16:28:53;;;;;;;;;;;;;;;;;;5053202;28;798;-67
2023/04/27 16:31:18;;;;;;;;;;;;;;;;;;5055493;28;1235;-67
2023/04/27 16:33:45;;;;;;;;;;;;;;;;;;5064246;28;1246;-67
2023/04/27 16:36:11;;;;;;;;;;;;;;;;;;5053658;28;1223;-67
2023/04/27 16:38:36;;;;;;;;;;;;;;;;;;5055473;28;896;-67
2023/04/27 16:41:01;;;;;;;;;;;;;;;;;;5053600;28;1182;-67
2023/04/27 16:43:28;;;;;;;;;;;;;;;;;;5053977;28;1902;-67
2023/04/27 16:45:54;;;;;;;;;;;;;;;;;;5055457;28;841;-67
2023/04/27 16:48:19;;;;;;;;;;;;;;;;;;5053682;28;1143;-67
2023/04/27 16:50:45;;;;;;;;;;;;;;;;;;5054828;28;1065;-67
2023/04/27 16:53:18;;;;;;;;;;;;;;;;;;5054725;28;836;-67
2023/04/27 16:55:43;;;;;;;;;;;;;;;;;;5053785;28;1208;-67
2023/04/27 16:58:08;;;;;;;;;;;;;;;;;;5054846;28;821;-67
2023/04/27 17:00:34;;;;;;;;;;;;;;;;;;5053827;28;821;-67
2023/04/27 17:02:59;;;;;;;;;;;;;;;;;;5054597;28;1914;-67